createdAt,value
2023-07-18T00:00:39.871Z,2.80
2023-07-18T00:03:08.154Z,2.60
2023-07-18T00:05:37.283Z,2.70
2023-07-18T00:08:06.012Z,2.83
2023-07-18T00:10:34.330Z,2.63
2023-07-18T00:13:02.480Z,2.50
2023-07-18T00:15:30.884Z,2.50
2023-07-18T00:18:03.479Z,2.80
2023-07-18T00:20:32.123Z,3.37
2023-07-18T00:23:00.598Z,2.83
2023-07-18T00:25:28.930Z,2.83
2023-07-18T00:27:57.164Z,2.93
2023-07-18T00:30:28.526Z,2.73
2023-07-18T00:32:57.923Z,3.03
2023-07-18T00:35:28.261Z,2.47
2023-07-18T00:37:56.419Z,3.03
2023-07-18T00:40:24.833Z,3.00
2023-07-18T00:42:52.985Z,2.60
2023-07-18T00:45:21.919Z,3.17
2023-07-18T00:47:50.182Z,3.07
2023-07-18T00:50:19.344Z,3.10
2023-07-18T00:52:49.753Z,3.20
2023-07-18T00:55:18.358Z,3.03
2023-07-18T00:57:47.603Z,2.90
2023-07-18T01:00:18.273Z,2.53
2023-07-18T01:03:01.324Z,2.93
2023-07-18T01:05:29.993Z,2.50
2023-07-18T01:07:59.519Z,2.73
2023-07-18T01:10:27.925Z,2.40
2023-07-18T01:12:56.753Z,2.50
2023-07-18T01:15:25.326Z,2.50
2023-07-18T01:17:53.608Z,2.63
2023-07-18T01:20:22.815Z,2.30
2023-07-18T01:22:54.902Z,3.00
2023-07-18T01:25:23.151Z,2.10
2023-07-18T01:27:52.054Z,3.10
2023-07-18T01:30:21.472Z,3.00
2023-07-18T01:32:50.332Z,2.83
2023-07-18T01:35:20.705Z,2.73
2023-07-18T01:37:49.677Z,2.80
2023-07-18T01:40:21.372Z,2.80
2023-07-18T01:42:53.279Z,2.30
2023-07-18T01:45:21.496Z,2.30
2023-07-18T01:47:50.406Z,2.30
2023-07-18T01:50:18.991Z,2.53
2023-07-18T01:52:48.401Z,2.60
2023-07-18T01:55:18.430Z,2.50
2023-07-18T01:57:47.511Z,2.70
2023-07-18T02:00:20.212Z,2.30
2023-07-18T02:02:50.041Z,2.80
2023-07-18T02:05:19.824Z,2.70
2023-07-18T02:07:49.129Z,2.13
2023-07-18T02:10:20.770Z,2.67
2023-07-18T02:12:49.188Z,2.80
2023-07-18T02:15:17.399Z,3.10
2023-07-18T02:17:45.749Z,2.73
2023-07-18T02:20:15.501Z,2.40
2023-07-18T02:22:46.191Z,2.90
2023-07-18T02:25:16.700Z,2.57
2023-07-18T02:27:46.296Z,2.90
2023-07-18T02:30:14.953Z,2.70
2023-07-18T02:32:43.505Z,2.63
2023-07-18T02:35:16.490Z,3.03
2023-07-18T02:37:44.909Z,2.93
2023-07-18T02:40:13.766Z,2.70
2023-07-18T02:42:41.946Z,2.43
2023-07-18T02:45:14.850Z,2.50
2023-07-18T02:47:43.004Z,2.50
2023-07-18T02:50:11.588Z,2.70
2023-07-18T02:52:40.402Z,2.87
2023-07-18T02:55:09.459Z,2.83
2023-07-18T02:57:37.688Z,3.00
2023-07-18T03:00:12.412Z,3.13
2023-07-18T03:02:43.326Z,3.17
2023-07-18T03:05:12.135Z,3.07
2023-07-18T03:07:40.301Z,2.67
2023-07-18T03:10:09.178Z,3.30
2023-07-18T03:12:37.364Z,2.73
2023-07-18T03:15:06.447Z,2.80
2023-07-18T03:17:34.728Z,2.50
2023-07-18T03:20:08.334Z,2.93
2023-07-18T03:22:36.493Z,3.20
2023-07-18T03:25:08.328Z,2.60
2023-07-18T03:27:36.509Z,3.37
2023-07-18T03:30:05.678Z,2.73
2023-07-18T03:32:33.834Z,3.23
2023-07-18T03:35:04.029Z,2.67
2023-07-18T03:37:32.137Z,3.17
2023-07-18T03:40:00.284Z,2.93
2023-07-18T03:42:28.426Z,2.40
2023-07-18T03:44:56.574Z,2.80
2023-07-18T03:47:24.697Z,3.20
2023-07-18T03:49:52.868Z,2.60
2023-07-18T03:52:22.359Z,2.80
2023-07-18T03:54:50.461Z,2.63
2023-07-18T03:57:18.571Z,2.60
2023-07-18T03:59:46.742Z,2.70
2023-07-18T04:02:17.052Z,3.10
2023-07-18T04:04:45.222Z,2.87
2023-07-18T04:07:13.734Z,2.73
2023-07-18T04:09:51.599Z,3.20
2023-07-18T04:12:19.712Z,2.80
2023-07-18T04:14:47.867Z,2.77
2023-07-18T04:17:17.570Z,2.57
2023-07-18T04:19:45.715Z,2.70
2023-07-18T04:22:13.873Z,2.90
2023-07-18T04:24:43.451Z,2.90
2023-07-18T04:27:11.602Z,2.70
2023-07-18T04:29:39.733Z,2.90
2023-07-18T04:32:08.526Z,2.83
2023-07-18T04:34:37.735Z,2.87
2023-07-18T04:37:06.226Z,3.00
2023-07-18T04:39:34.530Z,3.20
2023-07-18T04:42:04.157Z,3.00
2023-07-18T04:44:32.414Z,3.00
2023-07-18T04:47:01.031Z,3.63
2023-07-18T04:49:29.212Z,2.70
2023-07-18T04:51:57.363Z,2.27
2023-07-18T04:54:26.080Z,2.97
2023-07-18T04:56:54.968Z,2.70
2023-07-18T04:59:34.485Z,2.50
2023-07-18T05:02:04.333Z,2.60
2023-07-18T05:04:32.503Z,2.50
2023-07-18T05:07:01.228Z,2.20
2023-07-18T05:09:30.389Z,3.00
2023-07-18T05:11:58.550Z,2.77
2023-07-18T05:14:28.063Z,3.00
2023-07-18T05:16:56.198Z,2.80
2023-07-18T05:19:24.345Z,2.83
2023-07-18T05:21:53.599Z,2.87
2023-07-18T05:24:21.938Z,3.00
2023-07-18T05:26:50.103Z,3.70
2023-07-18T05:29:18.384Z,3.07
2023-07-18T05:31:48.192Z,2.93
2023-07-18T05:34:16.411Z,2.77
2023-07-18T05:36:44.524Z,3.20
2023-07-18T05:39:12.616Z,2.83
2023-07-18T05:41:40.755Z,3.23
2023-07-18T05:44:09.050Z,2.60
2023-07-18T05:46:40.649Z,2.73
2023-07-18T05:49:10.628Z,3.27
2023-07-18T05:51:44.725Z,2.90
2023-07-18T05:54:12.824Z,2.30
2023-07-18T05:56:42.881Z,2.97
2023-07-18T05:59:10.954Z,2.93
2023-07-18T06:01:39.217Z,2.70
2023-07-18T06:04:07.410Z,2.67
2023-07-18T06:06:36.973Z,2.63
2023-07-18T06:09:05.325Z,2.77
2023-07-18T06:11:33.448Z,2.60
2023-07-18T06:14:02.019Z,2.50
2023-07-18T06:16:30.216Z,2.43
2023-07-18T06:18:58.371Z,3.23
2023-07-18T06:21:28.541Z,2.50
2023-07-18T06:24:08.416Z,2.50
2023-07-18T06:26:41.761Z,2.53
2023-07-18T06:29:09.887Z,2.83
2023-07-18T06:31:38.547Z,2.67
2023-07-18T06:34:06.834Z,2.20
2023-07-18T06:36:35.011Z,2.47
2023-07-18T06:39:07.090Z,2.43
2023-07-18T06:41:35.220Z,2.60
2023-07-18T06:44:06.749Z,2.27
2023-07-18T06:46:34.935Z,2.27
2023-07-18T06:49:03.224Z,2.97
2023-07-18T06:51:31.384Z,2.40
2023-07-18T06:53:59.533Z,2.30
2023-07-18T06:56:29.021Z,2.80
2023-07-18T06:59:00.107Z,2.10
2023-07-18T07:01:28.289Z,2.50
2023-07-18T07:03:57.472Z,2.27
2023-07-18T07:06:25.706Z,2.77
2023-07-18T07:08:53.850Z,2.30
2023-07-18T07:11:22.314Z,2.23
2023-07-18T07:13:52.107Z,2.20
2023-07-18T07:16:20.394Z,2.30
2023-07-18T07:18:50.515Z,1.90
2023-07-18T07:21:18.995Z,2.23
2023-07-18T07:23:47.753Z,2.33
2023-07-18T07:26:16.376Z,2.20
2023-07-18T07:28:44.548Z,2.30
2023-07-18T07:31:20.245Z,2.33
2023-07-18T07:33:48.705Z,2.43
2023-07-18T07:36:16.878Z,2.53
2023-07-18T07:38:44.987Z,1.93
2023-07-18T07:41:13.186Z,2.20
2023-07-18T07:43:41.517Z,2.10
2023-07-18T07:46:09.719Z,2.03
2023-07-18T07:48:39.402Z,2.03
2023-07-18T07:51:07.584Z,2.03
2023-07-18T07:53:35.875Z,1.70
2023-07-18T07:56:04.067Z,2.10
2023-07-18T07:58:32.284Z,2.27
2023-07-18T08:01:00.720Z,1.90
2023-07-18T08:03:28.862Z,1.63
2023-07-18T08:06:06.499Z,1.57
2023-07-18T08:08:34.706Z,2.00
2023-07-18T08:11:02.966Z,1.50
2023-07-18T08:13:31.122Z,2.00
2023-07-18T08:15:59.226Z,1.80
2023-07-18T08:18:27.401Z,1.77
2023-07-18T08:20:55.660Z,1.63
2023-07-18T08:23:25.190Z,1.87
2023-07-18T08:25:53.531Z,1.70
2023-07-18T08:28:22.172Z,1.90
2023-07-18T08:30:50.336Z,1.67
2023-07-18T08:33:20.441Z,1.90
2023-07-18T08:35:48.596Z,1.70
2023-07-18T08:38:16.749Z,1.40
2023-07-18T08:40:46.349Z,1.50
2023-07-18T08:43:15.823Z,1.90
2023-07-18T08:45:44.017Z,1.20
2023-07-18T08:48:14.498Z,1.90
2023-07-18T08:50:43.101Z,2.03
2023-07-18T08:53:11.337Z,1.57
2023-07-18T08:55:39.571Z,1.47
2023-07-18T08:58:09.362Z,1.57
2023-07-18T09:00:37.472Z,1.53
2023-07-18T09:03:05.642Z,1.50
2023-07-18T09:05:36.109Z,1.70
2023-07-18T09:08:04.815Z,1.40
2023-07-18T09:10:33.321Z,1.50
2023-07-18T09:13:04.983Z,1.50
2023-07-18T09:15:35.273Z,1.60
2023-07-18T09:18:05.082Z,1.53
2023-07-18T09:20:33.590Z,1.47
2023-07-18T09:23:04.297Z,1.60
2023-07-18T09:25:32.569Z,1.77
2023-07-18T09:28:00.750Z,1.40
2023-07-18T09:30:30.750Z,1.60
2023-07-18T09:33:00.608Z,1.53
2023-07-18T09:35:29.123Z,1.40
2023-07-18T09:37:57.320Z,1.40
2023-07-18T09:40:25.464Z,1.40
2023-07-18T09:42:53.604Z,1.40
2023-07-18T09:45:21.888Z,1.33
2023-07-18T09:47:50.070Z,1.30
2023-07-18T09:50:36.643Z,1.07
2023-07-18T09:53:04.836Z,1.30
2023-07-18T09:55:35.441Z,1.30
2023-07-18T09:58:03.725Z,1.20
2023-07-18T10:00:32.218Z,1.47
2023-07-18T10:03:01.667Z,1.40
2023-07-18T10:05:30.044Z,1.27
2023-07-18T10:08:07.314Z,1.30
2023-07-18T10:10:35.519Z,1.43
2023-07-18T10:13:03.832Z,1.20
2023-07-18T10:15:31.966Z,1.10
2023-07-18T10:18:18.182Z,1.50
2023-07-18T10:20:59.103Z,1.40
2023-07-18T10:23:43.103Z,1.17
2023-07-18T10:26:11.591Z,1.23
2023-07-18T10:28:46.765Z,1.43
2023-07-18T10:31:37.948Z,1.40
2023-07-18T10:34:11.018Z,1.47
2023-07-18T10:36:39.774Z,1.20
2023-07-18T10:39:13.997Z,1.33
2023-07-18T10:41:45.919Z,1.30
2023-07-18T10:44:15.882Z,1.30
2023-07-18T10:46:44.976Z,1.50
2023-07-18T10:49:13.216Z,1.30
2023-07-18T10:51:41.466Z,1.30
2023-07-18T10:54:10.798Z,1.40
2023-07-18T10:56:40.404Z,1.50
2023-07-18T10:59:08.573Z,1.57
2023-07-18T11:01:36.734Z,1.40
2023-07-18T11:04:08.487Z,1.60
2023-07-18T11:06:36.961Z,1.60
2023-07-18T11:09:06.432Z,1.47
2023-07-18T11:11:34.601Z,1.40
2023-07-18T11:14:20.282Z,1.50
2023-07-18T11:16:49.211Z,1.50
2023-07-18T11:19:17.345Z,1.47
2023-07-18T11:21:45.469Z,1.13
2023-07-18T11:24:13.639Z,1.40
2023-07-18T11:26:41.820Z,1.47
2023-07-18T11:29:11.321Z,1.60
2023-07-18T11:31:42.807Z,1.70
2023-07-18T11:34:11.476Z,1.50
2023-07-18T11:36:45.341Z,1.53
2023-07-18T11:39:20.702Z,1.63
2023-07-18T11:41:49.323Z,1.20
2023-07-18T11:44:26.723Z,1.60
2023-07-18T11:46:54.976Z,2.03
2023-07-18T11:49:34.365Z,1.80
2023-07-18T11:52:02.791Z,2.13
2023-07-18T11:54:31.008Z,1.40
2023-07-18T11:56:59.217Z,1.60
2023-07-18T11:59:28.730Z,1.50
2023-07-18T12:01:56.915Z,1.50
2023-07-18T12:04:38.919Z,1.60
2023-07-18T12:07:08.294Z,1.57
2023-07-18T12:09:37.056Z,1.67
2023-07-18T12:12:06.044Z,1.50
2023-07-18T12:14:36.482Z,1.43
2023-07-18T12:17:04.713Z,1.63
2023-07-18T12:19:32.958Z,1.27
2023-07-18T12:22:01.017Z,1.60
2023-07-18T12:24:29.254Z,1.33
2023-07-18T12:26:57.366Z,1.50
2023-07-18T12:29:25.472Z,1.40
2023-07-18T12:31:55.236Z,1.40
2023-07-18T12:34:23.610Z,1.50
2023-07-18T12:37:00.485Z,1.33
2023-07-18T12:39:28.769Z,1.30
2023-07-18T12:41:56.856Z,1.67
2023-07-18T12:44:28.114Z,1.43
2023-07-18T12:46:59.381Z,1.10
2023-07-18T12:51:58.729Z,1.50
2023-07-18T12:54:29.678Z,1.23
2023-07-18T12:57:01.254Z,1.10
2023-07-18T12:59:30.003Z,1.47
2023-07-18T13:01:59.605Z,1.37
2023-07-18T13:04:27.808Z,1.30
2023-07-18T13:06:55.934Z,1.50
2023-07-18T13:09:24.032Z,1.40
2023-07-18T13:11:52.652Z,1.30
2023-07-18T13:14:21.920Z,1.50
2023-07-18T13:16:50.098Z,1.37
2023-07-18T13:19:19.786Z,1.40
2023-07-18T13:21:47.947Z,1.30
2023-07-18T13:24:16.084Z,2.20
2023-07-18T13:26:47.370Z,1.27
2023-07-18T13:29:15.445Z,1.20
2023-07-18T13:31:43.675Z,1.30
2023-07-18T13:34:14.211Z,1.13
2023-07-18T13:36:44.169Z,1.30
2023-07-18T13:39:12.269Z,1.40
2023-07-18T13:41:40.574Z,1.10
2023-07-18T13:44:08.710Z,1.20
2023-07-18T13:46:38.493Z,1.10
2023-07-18T13:49:06.801Z,1.17
2023-07-18T13:51:35.161Z,1.10
2023-07-18T13:54:05.555Z,1.00
2023-07-18T13:56:33.952Z,1.63
2023-07-18T13:59:02.106Z,1.43
2023-07-18T14:01:30.370Z,1.40
2023-07-18T14:03:58.674Z,1.13
2023-07-18T14:06:27.349Z,1.40
2023-07-18T14:08:55.440Z,1.07
2023-07-18T14:11:25.738Z,1.13
2023-07-18T14:13:55.107Z,1.20
2023-07-18T14:16:23.441Z,1.33
2023-07-18T14:18:59.474Z,1.67
2023-07-18T14:21:27.712Z,1.40
2023-07-18T14:23:55.824Z,1.53
2023-07-18T14:26:25.308Z,1.30
2023-07-18T14:28:53.535Z,1.37
2023-07-18T14:31:21.894Z,1.77
2023-07-18T14:34:04.666Z,1.10
2023-07-18T14:36:34.247Z,1.30
2023-07-18T14:39:02.541Z,1.77
2023-07-18T14:41:32.064Z,1.40
2023-07-18T14:44:00.202Z,1.27
2023-07-18T14:46:28.376Z,1.67
2023-07-18T14:48:56.511Z,1.30
2023-07-18T14:51:27.552Z,1.50
2023-07-18T14:53:55.673Z,1.57
2023-07-18T14:56:25.077Z,1.20
2023-07-18T14:58:54.603Z,1.50
2023-07-18T15:01:22.737Z,1.23
2023-07-18T15:03:50.960Z,1.30
2023-07-18T15:06:19.636Z,1.50
2023-07-18T15:08:50.823Z,1.67
2023-07-18T15:11:19.032Z,1.17
2023-07-18T15:13:47.182Z,1.43
2023-07-18T15:16:17.796Z,1.60
2023-07-18T15:18:51.715Z,1.80
2023-07-18T15:21:19.843Z,1.30
2023-07-18T15:23:47.974Z,1.60
2023-07-18T15:26:16.107Z,1.50
2023-07-18T15:28:44.377Z,1.40
2023-07-18T15:31:12.560Z,1.43
2023-07-18T15:33:42.163Z,1.43
2023-07-18T15:36:10.733Z,1.47
2023-07-18T15:38:38.841Z,1.33
2023-07-18T15:41:07.036Z,1.63
2023-07-18T15:43:35.290Z,1.60
2023-07-18T15:46:04.558Z,1.57
2023-07-18T15:48:32.773Z,2.83
2023-07-18T15:51:02.308Z,1.70
2023-07-18T15:53:30.528Z,1.33
2023-07-18T15:55:58.665Z,1.80
2023-07-18T15:58:26.766Z,1.80
2023-07-18T16:00:57.555Z,1.60
2023-07-18T16:03:31.650Z,1.40
2023-07-18T16:06:01.200Z,1.43
2023-07-18T16:08:29.349Z,1.50
2023-07-18T16:10:57.558Z,1.70
2023-07-18T16:13:25.700Z,1.70
2023-07-18T16:15:53.810Z,1.33
2023-07-18T16:18:22.041Z,1.73
2023-07-18T16:20:50.773Z,1.70
2023-07-18T16:23:20.301Z,1.63
2023-07-18T16:25:48.531Z,1.90
2023-07-18T16:28:16.642Z,1.30
2023-07-18T16:30:44.755Z,1.60
2023-07-18T16:33:13.363Z,1.80
2023-07-18T16:35:41.513Z,1.70
2023-07-18T16:38:09.656Z,1.63
2023-07-18T16:40:39.635Z,1.50
2023-07-18T16:43:07.865Z,1.40
2023-07-18T16:45:39.712Z,1.73
2023-07-18T16:48:07.929Z,1.57
2023-07-18T16:50:37.042Z,1.47
2023-07-18T16:53:05.685Z,1.57
2023-07-18T16:55:33.763Z,1.60
2023-07-18T16:58:03.910Z,1.80
2023-07-18T17:00:32.094Z,1.73
2023-07-18T17:03:00.251Z,1.53
2023-07-18T17:05:28.437Z,1.87
2023-07-18T17:07:56.613Z,1.73
2023-07-18T17:10:25.803Z,1.47
2023-07-18T17:12:54.144Z,1.90
2023-07-18T17:15:23.703Z,1.63
2023-07-18T17:17:52.138Z,1.87
2023-07-18T17:20:20.351Z,1.57
2023-07-18T17:22:48.560Z,1.60
2023-07-18T17:25:17.038Z,1.70
2023-07-18T17:27:45.559Z,1.50
2023-07-18T17:30:15.175Z,1.50
2023-07-18T17:32:44.764Z,1.60
2023-07-18T17:35:12.973Z,1.63
2023-07-18T17:37:41.696Z,1.97
2023-07-18T17:40:12.559Z,2.00
2023-07-18T17:42:42.810Z,1.70
2023-07-18T17:45:11.563Z,1.70
2023-07-18T17:47:39.696Z,1.60
2023-07-18T17:50:11.359Z,2.03
2023-07-18T17:52:40.694Z,1.33
2023-07-18T17:55:10.777Z,1.70
2023-07-18T17:57:40.736Z,1.70
2023-07-18T18:00:10.034Z,1.70
2023-07-18T18:02:38.267Z,1.80
2023-07-18T18:05:36.020Z,1.80
2023-07-18T18:08:04.755Z,2.00
2023-07-18T18:10:32.902Z,1.40
2023-07-18T18:13:01.119Z,1.87
2023-07-18T18:15:30.041Z,1.67
2023-07-18T18:17:58.249Z,1.30
2023-07-18T18:20:26.407Z,1.50
2023-07-18T18:22:56.416Z,1.50
2023-07-18T18:25:24.641Z,1.40
2023-07-18T18:27:52.754Z,1.47
2023-07-18T18:30:20.928Z,1.60
2023-07-18T18:32:56.461Z,1.70
2023-07-18T18:35:24.610Z,1.40
2023-07-18T18:37:52.769Z,1.70
2023-07-18T18:40:22.286Z,1.43
2023-07-18T18:42:50.434Z,1.60
2023-07-18T18:45:18.778Z,1.50
2023-07-18T18:47:47.668Z,1.50
2023-07-18T18:50:18.300Z,1.87
2023-07-18T18:52:51.244Z,1.90
2023-07-18T18:55:20.926Z,1.80
2023-07-18T18:57:51.541Z,1.83
2023-07-18T19:00:19.844Z,1.90
2023-07-18T19:02:48.056Z,1.60
2023-07-18T19:05:16.283Z,1.97
2023-07-18T19:07:44.436Z,1.90
2023-07-18T19:10:12.535Z,1.90
2023-07-18T19:12:40.734Z,1.60
2023-07-18T19:15:11.042Z,2.03
2023-07-18T19:17:39.365Z,2.00
2023-07-18T19:20:09.234Z,1.80
2023-07-18T19:22:37.448Z,1.80
2023-07-18T19:25:07.662Z,1.77
2023-07-18T19:27:36.191Z,1.90
2023-07-18T19:30:04.468Z,2.27
2023-07-18T19:32:34.036Z,2.47
2023-07-18T19:35:03.936Z,1.80
2023-07-18T19:37:32.360Z,2.50
2023-07-18T19:40:00.552Z,2.20
2023-07-18T19:42:28.750Z,2.30
2023-07-18T19:44:56.867Z,2.13
2023-07-18T19:47:25.159Z,2.23
2023-07-18T19:49:56.515Z,2.23
2023-07-18T19:52:24.705Z,1.67
2023-07-18T19:54:55.622Z,1.90
2023-07-18T19:57:23.809Z,1.93
2023-07-18T19:59:52.278Z,2.10
2023-07-18T20:02:20.438Z,2.27
2023-07-18T20:04:48.557Z,2.20
2023-07-18T20:07:18.130Z,2.50
2023-07-18T20:09:46.229Z,2.13
2023-07-18T20:12:17.322Z,2.47
2023-07-18T20:14:45.429Z,2.40
2023-07-18T20:17:13.547Z,3.07
2023-07-18T20:19:41.660Z,2.60
2023-07-18T20:22:09.826Z,3.07
2023-07-18T20:24:39.279Z,2.80
2023-07-18T20:27:07.509Z,3.13
2023-07-18T20:29:36.864Z,3.20
2023-07-18T20:32:21.693Z,3.63
2023-07-18T20:34:50.341Z,3.60
2023-07-18T20:37:18.594Z,3.60
2023-07-18T20:39:48.086Z,3.40
2023-07-18T20:42:16.255Z,3.20
2023-07-18T20:44:45.388Z,3.40
2023-07-18T20:47:13.544Z,2.60
2023-07-18T20:49:41.827Z,3.20
2023-07-18T20:52:10.163Z,3.03
2023-07-18T20:54:38.249Z,3.30
2023-07-18T20:57:08.569Z,2.80
2023-07-18T20:59:36.694Z,3.03
2023-07-18T21:02:05.100Z,2.80
2023-07-18T21:04:33.177Z,3.30
2023-07-18T21:07:01.370Z,3.10
2023-07-18T21:09:29.522Z,2.80
2023-07-18T21:11:57.621Z,3.40
2023-07-18T21:14:27.059Z,2.80
2023-07-18T21:16:55.232Z,2.70
2023-07-18T21:19:23.344Z,2.70
2023-07-18T21:21:51.475Z,2.43
2023-07-18T21:24:19.566Z,3.00
2023-07-18T21:26:47.682Z,2.70
2023-07-18T21:29:16.029Z,2.53
2023-07-18T21:31:45.643Z,2.50
2023-07-18T21:34:13.794Z,2.43
2023-07-18T21:36:42.433Z,2.40
2023-07-18T21:39:10.574Z,2.40
2023-07-18T21:41:38.923Z,2.83
2023-07-18T21:44:07.034Z,2.73
2023-07-18T21:46:35.585Z,2.70
2023-07-18T21:49:05.145Z,2.83
2023-07-18T21:51:33.264Z,2.57
2023-07-18T21:54:01.436Z,2.87
2023-07-18T21:56:29.682Z,2.97
2023-07-18T21:58:59.686Z,3.17
2023-07-18T22:01:27.856Z,3.50
2023-07-18T22:03:55.945Z,3.50
2023-07-18T22:06:25.445Z,3.97
2023-07-18T22:08:54.289Z,3.63
2023-07-18T22:11:23.236Z,4.00
2023-07-18T22:13:51.558Z,3.23
2023-07-18T22:16:20.297Z,3.27
2023-07-18T22:18:48.463Z,3.40
2023-07-18T22:21:16.789Z,3.23
2023-07-18T22:23:46.416Z,2.73
2023-07-18T22:26:15.061Z,3.10
2023-07-18T22:28:44.045Z,2.80
2023-07-18T22:31:12.603Z,2.83
2023-07-18T22:33:40.844Z,2.57
2023-07-18T22:36:09.262Z,2.50
2023-07-18T22:38:37.429Z,2.80
2023-07-18T22:41:06.900Z,2.83
2023-07-18T22:43:35.039Z,2.80
2023-07-18T22:46:03.189Z,2.80
2023-07-18T22:48:31.380Z,2.90
2023-07-18T22:50:59.471Z,3.07
2023-07-18T22:53:27.623Z,2.50
2023-07-18T22:55:56.279Z,3.00
2023-07-18T22:58:25.797Z,3.20
2023-07-18T23:00:55.246Z,3.20
2023-07-18T23:03:23.480Z,2.77
2023-07-18T23:05:51.748Z,3.13
2023-07-18T23:08:19.898Z,3.00
2023-07-18T23:10:48.059Z,2.57
2023-07-18T23:13:16.732Z,2.97
2023-07-18T23:15:46.235Z,3.13
2023-07-18T23:18:17.269Z,3.00
2023-07-18T23:20:46.488Z,3.07
2023-07-18T23:23:14.607Z,2.83
2023-07-18T23:25:42.798Z,3.30
2023-07-18T23:28:11.111Z,2.77
2023-07-18T23:30:43.192Z,3.50
2023-07-18T23:33:13.000Z,2.80
2023-07-18T23:35:41.387Z,3.20
2023-07-18T23:38:09.497Z,3.00
2023-07-18T23:40:37.604Z,2.57
2023-07-18T23:43:06.159Z,2.60
2023-07-18T23:45:34.336Z,2.67
2023-07-18T23:48:02.727Z,3.00
2023-07-18T23:50:32.346Z,2.47
2023-07-18T23:53:00.432Z,4.00
2023-07-18T23:55:28.589Z,2.63
2023-07-18T23:57:56.820Z,2.50
